sensor_id;sensor_type;location;lat;lon;timestamp;pressure;altitude;pressure_sealevel;temperature;humidity
52185;BME280;38160;52.876;18.778;2023-04-07T00:02:14;101045.02;;;2.10;93.81
52185;BME280;38160;52.876;18.778;2023-04-07T00:04:51;101041.39;;;2.11;93.53
52185;BME280;38160;52.876;18.778;2023-04-07T00:07:28;101044.14;;;2.12;95.00
52185;BME280;38160;52.876;18.778;2023-04-07T00:10:05;101046.08;;;2.10;95.40
52185;BME280;38160;52.876;18.778;2023-04-07T00:12:41;101038.07;;;2.10;94.05
52185;BME280;38160;52.876;18.778;2023-04-07T00:15:17;101041.47;;;2.10;94.46
52185;BME280;38160;52.876;18.778;2023-04-07T00:17:53;101040.23;;;2.12;93.44
52185;BME280;38160;52.876;18.778;2023-04-07T00:20:29;101035.02;;;2.13;93.93
52185;BME280;38160;52.876;18.778;2023-04-07T00:23:05;101037.11;;;2.14;95.17
52185;BME280;38160;52.876;18.778;2023-04-07T00:25:41;101031.65;;;2.13;94.68
52185;BME280;38160;52.876;18.778;2023-04-07T00:28:17;101032.61;;;2.17;94.77
52185;BME280;38160;52.876;18.778;2023-04-07T00:34:25;101038.84;;;2.22;94.58
52185;BME280;38160;52.876;18.778;2023-04-07T00:37:01;101033.59;;;2.21;94.66
52185;BME280;38160;52.876;18.778;2023-04-07T00:39:39;101030.36;;;2.25;94.64
52185;BME280;38160;52.876;18.778;2023-04-07T00:42:16;101026.52;;;2.26;95.32
52185;BME280;38160;52.876;18.778;2023-04-07T00:44:53;101023.99;;;2.27;94.87
52185;BME280;38160;52.876;18.778;2023-04-07T00:51:46;101017.48;;;2.26;95.79
52185;BME280;38160;52.876;18.778;2023-04-07T00:54:22;101011.62;;;2.26;94.76
52185;BME280;38160;52.876;18.778;2023-04-07T00:56:59;101014.55;;;2.30;94.74
52185;BME280;38160;52.876;18.778;2023-04-07T00:59:40;101013.55;;;2.32;95.08
52185;BME280;38160;52.876;18.778;2023-04-07T01:02:17;101012.98;;;2.36;95.14
52185;BME280;38160;52.876;18.778;2023-04-07T01:05:08;101014.45;;;2.37;94.98
52185;BME280;38160;52.876;18.778;2023-04-07T01:19:47;100995.45;;;2.37;96.45
52185;BME280;38160;52.876;18.778;2023-04-07T01:22:35;100990.95;;;2.38;96.09
52185;BME280;38160;52.876;18.778;2023-04-07T01:25:30;100987.34;;;2.36;96.26
52185;BME280;38160;52.876;18.778;2023-04-07T01:28:43;100985.25;;;2.38;96.37
52185;BME280;38160;52.876;18.778;2023-04-07T01:31:23;100978.98;;;2.42;96.87
52185;BME280;38160;52.876;18.778;2023-04-07T01:34:05;100975.55;;;2.45;96.57
52185;BME280;38160;52.876;18.778;2023-04-07T01:36:43;100970.68;;;2.49;96.61
52185;BME280;38160;52.876;18.778;2023-04-07T01:39:22;100968.61;;;2.51;95.97
52185;BME280;38160;52.876;18.778;2023-04-07T01:42:04;100963.36;;;2.52;95.94
52185;BME280;38160;52.876;18.778;2023-04-07T01:44:41;100963.73;;;2.55;96.40
52185;BME280;38160;52.876;18.778;2023-04-07T01:47:18;100958.45;;;2.56;96.76
52185;BME280;38160;52.876;18.778;2023-04-07T01:49:54;100953.43;;;2.57;97.50
52185;BME280;38160;52.876;18.778;2023-04-07T01:52:32;100958.49;;;2.58;96.55
52185;BME280;38160;52.876;18.778;2023-04-07T01:55:10;100951.44;;;2.60;96.97
52185;BME280;38160;52.876;18.778;2023-04-07T02:04:56;100954.37;;;2.59;97.24
52185;BME280;38160;52.876;18.778;2023-04-07T02:12:16;100954.02;;;2.59;96.21
52185;BME280;38160;52.876;18.778;2023-04-07T02:20:01;100950.20;;;2.58;98.32
52185;BME280;38160;52.876;18.778;2023-04-07T02:22:38;100949.70;;;2.62;97.89
52185;BME280;38160;52.876;18.778;2023-04-07T02:25:25;100950.10;;;2.64;97.31
52185;BME280;38160;52.876;18.778;2023-04-07T02:28:01;100949.41;;;2.64;97.51
52185;BME280;38160;52.876;18.778;2023-04-07T02:30:38;100944.30;;;2.63;97.22
52185;BME280;38160;52.876;18.778;2023-04-07T02:33:14;100942.48;;;2.64;97.57
52185;BME280;38160;52.876;18.778;2023-04-07T02:35:51;100939.04;;;2.62;98.09
52185;BME280;38160;52.876;18.778;2023-04-07T02:38:27;100933.96;;;2.64;97.82
52185;BME280;38160;52.876;18.778;2023-04-07T02:41:04;100932.81;;;2.65;97.78
52185;BME280;38160;52.876;18.778;2023-04-07T02:43:59;100930.98;;;2.65;98.81
52185;BME280;38160;52.876;18.778;2023-04-07T02:46:35;100928.90;;;2.65;99.67
52185;BME280;38160;52.876;18.778;2023-04-07T02:49:11;100922.54;;;2.64;99.46
52185;BME280;38160;52.876;18.778;2023-04-07T02:51:50;100927.98;;;2.68;98.18
52185;BME280;38160;52.876;18.778;2023-04-07T02:54:27;100929.70;;;2.71;98.40
52185;BME280;38160;52.876;18.778;2023-04-07T02:57:32;100927.20;;;2.72;97.62
52185;BME280;38160;52.876;18.778;2023-04-07T03:01:02;100932.52;;;2.72;98.34
52185;BME280;38160;52.876;18.778;2023-04-07T03:03:58;100929.55;;;2.74;98.67
52185;BME280;38160;52.876;18.778;2023-04-07T03:07:08;100932.56;;;2.74;98.59
52185;BME280;38160;52.876;18.778;2023-04-07T03:14:11;100933.81;;;2.76;99.14
52185;BME280;38160;52.876;18.778;2023-04-07T03:17:26;100935.84;;;2.78;99.11
52185;BME280;38160;52.876;18.778;2023-04-07T03:20:38;100932.63;;;2.78;99.18
52185;BME280;38160;52.876;18.778;2023-04-07T03:23:49;100927.73;;;2.77;99.73
52185;BME280;38160;52.876;18.778;2023-04-07T03:27:09;100923.21;;;2.81;99.44
52185;BME280;38160;52.876;18.778;2023-04-07T03:30:32;100921.61;;;2.83;98.72
52185;BME280;38160;52.876;18.778;2023-04-07T03:34:09;100918.72;;;2.84;98.68
52185;BME280;38160;52.876;18.778;2023-04-07T03:37:31;100918.65;;;2.85;99.32
52185;BME280;38160;52.876;18.778;2023-04-07T03:40:31;100910.66;;;2.85;99.64
52185;BME280;38160;52.876;18.778;2023-04-07T03:43:45;100914.48;;;2.88;98.98
52185;BME280;38160;52.876;18.778;2023-04-07T03:49:57;100908.67;;;2.90;99.92
52185;BME280;38160;52.876;18.778;2023-04-07T03:53:22;100906.59;;;2.92;99.97
52185;BME280;38160;52.876;18.778;2023-04-07T03:56:01;100909.59;;;2.92;99.62
52185;BME280;38160;52.876;18.778;2023-04-07T03:59:03;100908.70;;;2.95;99.90
52185;BME280;38160;52.876;18.778;2023-04-07T04:01:53;100905.65;;;2.98;99.61
52185;BME280;38160;52.876;18.778;2023-04-07T04:04:51;100906.16;;;3.00;99.28
52185;BME280;38160;52.876;18.778;2023-04-07T04:07:30;100909.00;;;3.03;99.72
52185;BME280;38160;52.876;18.778;2023-04-07T04:10:14;100913.15;;;3.07;99.65
52185;BME280;38160;52.876;18.778;2023-04-07T04:13:11;100911.71;;;3.07;100.00
52185;BME280;38160;52.876;18.778;2023-04-07T04:16:00;100915.92;;;3.06;100.00
52185;BME280;38160;52.876;18.778;2023-04-07T04:22:49;100915.14;;;3.07;99.98
52185;BME280;38160;52.876;18.778;2023-04-07T04:25:34;100913.34;;;3.09;99.83
52185;BME280;38160;52.876;18.778;2023-04-07T04:28:22;100916.67;;;3.13;100.00
52185;BME280;38160;52.876;18.778;2023-04-07T04:32:35;100917.13;;;3.14;100.00
52185;BME280;38160;52.876;18.778;2023-04-07T04:46:43;100921.48;;;3.15;100.00
52185;BME280;38160;52.876;18.778;2023-04-07T04:56:48;100918.14;;;3.22;100.00
52185;BME280;38160;52.876;18.778;2023-04-07T05:13:13;100919.35;;;3.30;100.00
52185;BME280;38160;52.876;18.778;2023-04-07T05:15:49;100918.88;;;3.32;100.00
52185;BME280;38160;52.876;18.778;2023-04-07T05:18:28;100914.99;;;3.31;100.00
52185;BME280;38160;52.876;18.778;2023-04-07T05:21:08;100921.52;;;3.32;100.00
52185;BME280;38160;52.876;18.778;2023-04-07T05:23:46;100924.14;;;3.35;100.00
52185;BME280;38160;52.876;18.778;2023-04-07T05:26:31;100924.30;;;3.35;100.00
52185;BME280;38160;52.876;18.778;2023-04-07T05:29:10;100924.94;;;3.39;100.00
52185;BME280;38160;52.876;18.778;2023-04-07T05:31:51;100926.34;;;3.41;100.00
52185;BME280;38160;52.876;18.778;2023-04-07T05:38:40;100927.63;;;3.48;100.00
52185;BME280;38160;52.876;18.778;2023-04-07T05:41:29;100924.30;;;3.50;100.00
52185;BME280;38160;52.876;18.778;2023-04-07T05:44:58;100926.14;;;3.51;100.00
52185;BME280;38160;52.876;18.778;2023-04-07T06:11:46;100923.41;;;3.77;100.00
52185;BME280;38160;52.876;18.778;2023-04-07T06:14:26;100921.58;;;3.82;100.00
52185;BME280;38160;52.876;18.778;2023-04-07T06:17:37;100922.16;;;3.86;100.00
52185;BME280;38160;52.876;18.778;2023-04-07T06:20:13;100928.33;;;3.92;100.00
52185;BME280;38160;52.876;18.778;2023-04-07T06:23:19;100932.95;;;3.95;100.00
52185;BME280;38160;52.876;18.778;2023-04-07T06:26:06;100927.98;;;3.95;100.00
52185;BME280;38160;52.876;18.778;2023-04-07T06:36:37;100935.56;;;4.12;100.00
52185;BME280;38160;52.876;18.778;2023-04-07T06:39:14;100934.05;;;4.15;100.00
52185;BME280;38160;52.876;18.778;2023-04-07T06:45:43;100921.23;;;4.27;100.00
52185;BME280;38160;52.876;18.778;2023-04-07T06:56:15;100915.82;;;4.40;100.00
52185;BME280;38160;52.876;18.778;2023-04-07T06:59:13;100916.05;;;4.44;100.00
52185;BME280;38160;52.876;18.778;2023-04-07T07:01:54;100916.77;;;4.48;100.00
52185;BME280;38160;52.876;18.778;2023-04-07T07:04:34;100922.80;;;4.51;100.00
52185;BME280;38160;52.876;18.778;2023-04-07T07:07:09;100924.33;;;4.54;100.00
52185;BME280;38160;52.876;18.778;2023-04-07T07:09:54;100921.55;;;4.56;100.00
52185;BME280;38160;52.876;18.778;2023-04-07T07:30:26;100925.48;;;4.74;100.00
52185;BME280;38160;52.876;18.778;2023-04-07T07:33:45;100921.94;;;4.85;100.00
52185;BME280;38160;52.876;18.778;2023-04-07T07:36:21;100927.38;;;4.93;100.00
52185;BME280;38160;52.876;18.778;2023-04-07T07:38:58;100926.76;;;4.99;100.00
52185;BME280;38160;52.876;18.778;2023-04-07T07:41:34;100921.29;;;5.05;100.00
52185;BME280;38160;52.876;18.778;2023-04-07T07:44:08;100920.40;;;5.13;100.00
52185;BME280;38160;52.876;18.778;2023-04-07T07:46:45;100921.60;;;5.21;100.00
52185;BME280;38160;52.876;18.778;2023-04-07T07:49:22;100925.38;;;5.29;100.00
52185;BME280;38160;52.876;18.778;2023-04-07T07:52:22;100924.73;;;5.35;100.00
52185;BME280;38160;52.876;18.778;2023-04-07T07:55:09;100926.13;;;5.40;100.00
52185;BME280;38160;52.876;18.778;2023-04-07T08:07:42;100930.14;;;5.50;100.00
52185;BME280;38160;52.876;18.778;2023-04-07T08:11:20;100922.77;;;5.53;100.00
52185;BME280;38160;52.876;18.778;2023-04-07T08:15:29;100916.08;;;5.54;100.00
52185;BME280;38160;52.876;18.778;2023-04-07T08:18:40;100921.98;;;5.65;100.00
52185;BME280;38160;52.876;18.778;2023-04-07T08:21:14;100922.80;;;5.72;100.00
52185;BME280;38160;52.876;18.778;2023-04-07T08:27:46;100924.34;;;6.06;100.00
52185;BME280;38160;52.876;18.778;2023-04-07T08:30:21;100924.64;;;6.24;100.00
52185;BME280;38160;52.876;18.778;2023-04-07T08:32:56;100920.59;;;6.42;100.00
52185;BME280;38160;52.876;18.778;2023-04-07T08:35:29;100918.65;;;6.56;100.00
52185;BME280;38160;52.876;18.778;2023-04-07T08:42:10;100921.66;;;6.79;100.00
52185;BME280;38160;52.876;18.778;2023-04-07T08:45:37;100920.79;;;6.86;100.00
52185;BME280;38160;52.876;18.778;2023-04-07T08:48:16;100918.12;;;6.93;100.00
52185;BME280;38160;52.876;18.778;2023-04-07T08:50:51;100918.30;;;6.98;100.00
52185;BME280;38160;52.876;18.778;2023-04-07T08:53:33;100917.88;;;6.96;100.00
52185;BME280;38160;52.876;18.778;2023-04-07T08:56:08;100914.39;;;6.95;100.00
52185;BME280;38160;52.876;18.778;2023-04-07T08:58:43;100915.23;;;6.98;100.00
52185;BME280;38160;52.876;18.778;2023-04-07T09:01:18;100907.84;;;7.00;100.00
52185;BME280;38160;52.876;18.778;2023-04-07T09:03:53;100908.30;;;7.10;100.00
52185;BME280;38160;52.876;18.778;2023-04-07T09:06:31;100910.37;;;7.17;100.00
52185;BME280;38160;52.876;18.778;2023-04-07T09:09:06;100906.64;;;7.20;100.00
52185;BME280;38160;52.876;18.778;2023-04-07T09:11:46;100908.91;;;7.27;100.00
52185;BME280;38160;52.876;18.778;2023-04-07T09:14:21;100904.89;;;7.40;100.00
52185;BME280;38160;52.876;18.778;2023-04-07T09:16:55;100897.96;;;7.51;100.00
52185;BME280;38160;52.876;18.778;2023-04-07T09:19:29;100888.39;;;7.58;100.00
52185;BME280;38160;52.876;18.778;2023-04-07T09:22:03;100891.11;;;7.74;100.00
52185;BME280;38160;52.876;18.778;2023-04-07T09:24:37;100893.20;;;7.76;100.00
52185;BME280;38160;52.876;18.778;2023-04-07T09:27:13;100894.00;;;7.78;100.00
52185;BME280;38160;52.876;18.778;2023-04-07T09:29:49;100895.08;;;7.81;100.00
52185;BME280;38160;52.876;18.778;2023-04-07T09:32:35;100891.83;;;7.82;100.00
52185;BME280;38160;52.876;18.778;2023-04-07T09:35:10;100887.89;;;7.89;100.00
52185;BME280;38160;52.876;18.778;2023-04-07T09:37:44;100886.25;;;7.96;100.00
52185;BME280;38160;52.876;18.778;2023-04-07T09:40:26;100882.84;;;7.98;100.00
52185;BME280;38160;52.876;18.778;2023-04-07T09:43:00;100879.69;;;8.00;100.00
52185;BME280;38160;52.876;18.778;2023-04-07T09:48:59;100888.17;;;8.04;100.00
52185;BME280;38160;52.876;18.778;2023-04-07T09:52:51;100883.03;;;7.90;100.00
52185;BME280;38160;52.876;18.778;2023-04-07T09:55:42;100885.99;;;7.81;100.00
52185;BME280;38160;52.876;18.778;2023-04-07T09:59:06;100882.40;;;7.75;100.00
52185;BME280;38160;52.876;18.778;2023-04-07T10:01:56;100875.74;;;7.75;100.00
52185;BME280;38160;52.876;18.778;2023-04-07T10:04:46;100877.68;;;7.87;100.00
52185;BME280;38160;52.876;18.778;2023-04-07T10:07:21;100879.30;;;7.95;100.00
52185;BME280;38160;52.876;18.778;2023-04-07T10:09:56;100880.42;;;8.08;100.00
52185;BME280;38160;52.876;18.778;2023-04-07T10:12:43;100878.20;;;8.28;100.00
52185;BME280;38160;52.876;18.778;2023-04-07T10:15:28;100884.31;;;8.55;100.00
52185;BME280;38160;52.876;18.778;2023-04-07T10:18:06;100882.67;;;8.80;100.00
52185;BME280;38160;52.876;18.778;2023-04-07T10:20:50;100887.67;;;8.97;100.00
52185;BME280;38160;52.876;18.778;2023-04-07T10:24:03;100886.67;;;8.95;100.00
52185;BME280;38160;52.876;18.778;2023-04-07T10:27:31;100883.11;;;9.02;100.00
52185;BME280;38160;52.876;18.778;2023-04-07T10:30:13;100881.95;;;9.06;100.00
52185;BME280;38160;52.876;18.778;2023-04-07T10:32:48;100881.66;;;9.17;100.00
52185;BME280;38160;52.876;18.778;2023-04-07T10:35:23;100882.10;;;9.31;100.00
52185;BME280;38160;52.876;18.778;2023-04-07T10:38:11;100877.80;;;9.34;100.00
52185;BME280;38160;52.876;18.778;2023-04-07T10:40:49;100879.05;;;9.29;100.00
52185;BME280;38160;52.876;18.778;2023-04-07T10:43:47;100871.27;;;9.17;100.00
52185;BME280;38160;52.876;18.778;2023-04-07T10:46:21;100883.27;;;9.11;100.00
52185;BME280;38160;52.876;18.778;2023-04-07T10:49:10;100878.42;;;9.02;100.00
52185;BME280;38160;52.876;18.778;2023-04-07T10:52:23;100879.30;;;9.00;100.00
52185;BME280;38160;52.876;18.778;2023-04-07T10:55:29;100877.23;;;8.98;100.00
52185;BME280;38160;52.876;18.778;2023-04-07T10:58:13;100874.06;;;9.00;100.00
52185;BME280;38160;52.876;18.778;2023-04-07T11:01:17;100874.98;;;9.02;100.00
52185;BME280;38160;52.876;18.778;2023-04-07T11:03:54;100876.25;;;9.04;100.00
52185;BME280;38160;52.876;18.778;2023-04-07T11:06:28;100874.88;;;9.09;100.00
52185;BME280;38160;52.876;18.778;2023-04-07T11:09:04;100871.24;;;9.15;100.00
52185;BME280;38160;52.876;18.778;2023-04-07T11:11:41;100875.10;;;9.25;100.00
52185;BME280;38160;52.876;18.778;2023-04-07T11:14:34;100878.30;;;9.35;100.00
52185;BME280;38160;52.876;18.778;2023-04-07T11:17:14;100877.68;;;9.41;100.00
52185;BME280;38160;52.876;18.778;2023-04-07T11:19:52;100877.14;;;9.54;100.00
52185;BME280;38160;52.876;18.778;2023-04-07T11:22:26;100874.59;;;9.66;100.00
52185;BME280;38160;52.876;18.778;2023-04-07T11:24:59;100871.90;;;9.79;100.00
52185;BME280;38160;52.876;18.778;2023-04-07T11:27:39;100867.69;;;9.91;100.00
52185;BME280;38160;52.876;18.778;2023-04-07T11:30:15;100864.13;;;10.00;100.00
52185;BME280;38160;52.876;18.778;2023-04-07T11:32:50;100859.96;;;10.06;100.00
52185;BME280;38160;52.876;18.778;2023-04-07T11:35:24;100858.92;;;10.21;100.00
52185;BME280;38160;52.876;18.778;2023-04-07T11:37:59;100859.77;;;10.30;100.00
52185;BME280;38160;52.876;18.778;2023-04-07T11:41:09;100859.68;;;10.44;100.00
52185;BME280;38160;52.876;18.778;2023-04-07T11:43:45;100856.51;;;10.48;100.00
52185;BME280;38160;52.876;18.778;2023-04-07T11:46:22;100856.55;;;10.49;100.00
52185;BME280;38160;52.876;18.778;2023-04-07T11:49:09;100854.84;;;10.57;100.00
52185;BME280;38160;52.876;18.778;2023-04-07T11:52:00;100855.84;;;10.72;100.00
52185;BME280;38160;52.876;18.778;2023-04-07T11:54:42;100852.27;;;10.99;100.00
52185;BME280;38160;52.876;18.778;2023-04-07T11:57:35;100850.27;;;11.25;100.00
52185;BME280;38160;52.876;18.778;2023-04-07T12:00:56;100846.36;;;11.40;100.00
52185;BME280;38160;52.876;18.778;2023-04-07T12:03:30;100852.23;;;11.33;100.00
52185;BME280;38160;52.876;18.778;2023-04-07T12:06:05;100856.27;;;11.33;100.00
52185;BME280;38160;52.876;18.778;2023-04-07T12:08:40;100865.29;;;11.34;100.00
52185;BME280;38160;52.876;18.778;2023-04-07T12:11:14;100864.21;;;11.26;100.00
52185;BME280;38160;52.876;18.778;2023-04-07T12:13:48;100857.59;;;11.22;100.00
52185;BME280;38160;52.876;18.778;2023-04-07T12:16:23;100860.52;;;11.18;100.00
52185;BME280;38160;52.876;18.778;2023-04-07T12:18:58;100855.81;;;11.17;100.00
52185;BME280;38160;52.876;18.778;2023-04-07T12:21:35;100859.52;;;11.14;100.00
52185;BME280;38160;52.876;18.778;2023-04-07T12:24:12;100864.20;;;11.12;100.00
52185;BME280;38160;52.876;18.778;2023-04-07T12:26:46;100865.61;;;11.03;100.00
52185;BME280;38160;52.876;18.778;2023-04-07T12:29:22;100866.27;;;11.00;100.00
52185;BME280;38160;52.876;18.778;2023-04-07T12:31:56;100864.90;;;10.95;100.00
52185;BME280;38160;52.876;18.778;2023-04-07T12:34:30;100866.37;;;10.91;100.00
52185;BME280;38160;52.876;18.778;2023-04-07T12:37:04;100869.54;;;10.84;100.00
52185;BME280;38160;52.876;18.778;2023-04-07T12:39:38;100871.79;;;10.76;100.00
52185;BME280;38160;52.876;18.778;2023-04-07T12:42:12;100873.95;;;10.72;100.00
52185;BME280;38160;52.876;18.778;2023-04-07T12:44:47;100871.99;;;10.70;100.00
52185;BME280;38160;52.876;18.778;2023-04-07T12:47:21;100871.50;;;10.72;100.00
52185;BME280;38160;52.876;18.778;2023-04-07T12:49:55;100867.55;;;10.73;100.00
52185;BME280;38160;52.876;18.778;2023-04-07T12:52:32;100873.45;;;10.74;100.00
52185;BME280;38160;52.876;18.778;2023-04-07T12:55:07;100873.54;;;10.69;100.00
52185;BME280;38160;52.876;18.778;2023-04-07T12:57:42;100867.16;;;10.69;100.00
52185;BME280;38160;52.876;18.778;2023-04-07T13:00:16;100870.35;;;10.69;100.00
52185;BME280;38160;52.876;18.778;2023-04-07T13:02:49;100872.78;;;10.65;100.00
52185;BME280;38160;52.876;18.778;2023-04-07T13:05:24;100874.72;;;10.63;100.00
52185;BME280;38160;52.876;18.778;2023-04-07T13:08:00;100873.70;;;10.63;100.00
52185;BME280;38160;52.876;18.778;2023-04-07T13:10:35;100876.21;;;10.65;100.00
52185;BME280;38160;52.876;18.778;2023-04-07T13:13:09;100872.38;;;10.69;100.00
52185;BME280;38160;52.876;18.778;2023-04-07T13:15:44;100875.80;;;10.75;100.00
52185;BME280;38160;52.876;18.778;2023-04-07T13:18:19;100873.58;;;10.83;100.00
52185;BME280;38160;52.876;18.778;2023-04-07T13:20:55;100873.31;;;10.89;100.00
52185;BME280;38160;52.876;18.778;2023-04-07T13:23:38;100873.59;;;10.91;100.00
52185;BME280;38160;52.876;18.778;2023-04-07T13:26:33;100870.03;;;10.88;100.00
52185;BME280;38160;52.876;18.778;2023-04-07T13:29:07;100872.60;;;10.87;100.00
52185;BME280;38160;52.876;18.778;2023-04-07T13:31:45;100871.02;;;10.85;100.00
52185;BME280;38160;52.876;18.778;2023-04-07T13:34:19;100869.50;;;10.84;100.00
52185;BME280;38160;52.876;18.778;2023-04-07T13:37:21;100872.92;;;10.82;100.00
52185;BME280;38160;52.876;18.778;2023-04-07T13:40:09;100874.90;;;10.77;100.00
52185;BME280;38160;52.876;18.778;2023-04-07T13:42:50;100871.77;;;10.74;100.00
52185;BME280;38160;52.876;18.778;2023-04-07T13:45:45;100872.77;;;10.72;100.00
52185;BME280;38160;52.876;18.778;2023-04-07T13:49:11;100872.79;;;10.63;100.00
52185;BME280;38160;52.876;18.778;2023-04-07T13:53:12;100867.99;;;10.57;100.00
52185;BME280;38160;52.876;18.778;2023-04-07T13:56:28;100864.33;;;10.59;100.00
52185;BME280;38160;52.876;18.778;2023-04-07T13:59:03;100863.43;;;10.66;100.00
52185;BME280;38160;52.876;18.778;2023-04-07T14:01:37;100864.81;;;10.72;100.00
52185;BME280;38160;52.876;18.778;2023-04-07T14:04:26;100857.06;;;10.77;100.00
52185;BME280;38160;52.876;18.778;2023-04-07T14:07:02;100856.15;;;10.88;100.00
52185;BME280;38160;52.876;18.778;2023-04-07T14:09:56;100857.69;;;10.94;100.00
52185;BME280;38160;52.876;18.778;2023-04-07T14:12:55;100854.85;;;10.97;100.00
52185;BME280;38160;52.876;18.778;2023-04-07T14:15:33;100854.39;;;11.01;100.00
52185;BME280;38160;52.876;18.778;2023-04-07T14:18:11;100848.05;;;11.08;100.00
52185;BME280;38160;52.876;18.778;2023-04-07T14:20:56;100846.95;;;11.20;100.00
52185;BME280;38160;52.876;18.778;2023-04-07T14:23:30;100842.02;;;11.41;100.00
52185;BME280;38160;52.876;18.778;2023-04-07T14:26:04;100837.73;;;11.63;100.00
52185;BME280;38160;52.876;18.778;2023-04-07T14:28:37;100838.19;;;11.85;100.00
52185;BME280;38160;52.876;18.778;2023-04-07T14:31:15;100836.07;;;12.14;100.00
52185;BME280;38160;52.876;18.778;2023-04-07T14:33:49;100842.28;;;12.35;99.47
52185;BME280;38160;52.876;18.778;2023-04-07T14:36:22;100843.36;;;12.40;99.65
52185;BME280;38160;52.876;18.778;2023-04-07T14:38:56;100847.11;;;12.40;99.36
52185;BME280;38160;52.876;18.778;2023-04-07T14:41:30;100850.26;;;12.39;99.56
52185;BME280;38160;52.876;18.778;2023-04-07T14:44:04;100850.80;;;12.38;99.58
52185;BME280;38160;52.876;18.778;2023-04-07T14:46:40;100851.25;;;12.40;99.12
52185;BME280;38160;52.876;18.778;2023-04-07T14:49:17;100854.95;;;12.46;99.60
52185;BME280;38160;52.876;18.778;2023-04-07T14:51:54;100855.87;;;12.49;99.14
52185;BME280;38160;52.876;18.778;2023-04-07T14:54:28;100857.70;;;12.55;98.78
52185;BME280;38160;52.876;18.778;2023-04-07T14:57:03;100860.30;;;12.59;98.77
52185;BME280;38160;52.876;18.778;2023-04-07T14:59:37;100860.95;;;12.62;99.00
52185;BME280;38160;52.876;18.778;2023-04-07T15:02:15;100857.91;;;12.62;98.57
52185;BME280;38160;52.876;18.778;2023-04-07T15:04:53;100857.58;;;12.65;98.69
52185;BME280;38160;52.876;18.778;2023-04-07T15:08:04;100854.91;;;12.72;98.35
52185;BME280;38160;52.876;18.778;2023-04-07T15:11:06;100856.02;;;12.83;98.02
52185;BME280;38160;52.876;18.778;2023-04-07T15:13:58;100850.75;;;12.93;98.37
52185;BME280;38160;52.876;18.778;2023-04-07T15:16:54;100845.53;;;13.01;97.91
52185;BME280;38160;52.876;18.778;2023-04-07T15:31:29;100849.79;;;13.20;97.95
52185;BME280;38160;52.876;18.778;2023-04-07T15:34:03;100850.71;;;13.17;97.94
52185;BME280;38160;52.876;18.778;2023-04-07T15:36:55;100851.23;;;13.04;97.73
52185;BME280;38160;52.876;18.778;2023-04-07T15:39:49;100857.69;;;12.91;97.76
52185;BME280;38160;52.876;18.778;2023-04-07T15:42:25;100858.92;;;12.78;97.86
52185;BME280;38160;52.876;18.778;2023-04-07T15:45:16;100863.21;;;12.64;98.30
52185;BME280;38160;52.876;18.778;2023-04-07T15:47:53;100866.67;;;12.57;98.48
52185;BME280;38160;52.876;18.778;2023-04-07T15:50:27;100870.14;;;12.42;98.41
52185;BME280;38160;52.876;18.778;2023-04-07T15:53:02;100866.74;;;12.29;98.80
52185;BME280;38160;52.876;18.778;2023-04-07T15:55:40;100872.23;;;12.19;99.10
52185;BME280;38160;52.876;18.778;2023-04-07T15:58:18;100874.96;;;12.08;99.38
52185;BME280;38160;52.876;18.778;2023-04-07T16:00:54;100876.92;;;11.99;99.75
52185;BME280;38160;52.876;18.778;2023-04-07T16:03:29;100878.63;;;11.91;99.89
52185;BME280;38160;52.876;18.778;2023-04-07T16:09:11;100883.52;;;11.78;100.00
52185;BME280;38160;52.876;18.778;2023-04-07T16:19:30;100893.43;;;11.42;100.00
52185;BME280;38160;52.876;18.778;2023-04-07T16:22:03;100891.85;;;11.37;100.00
52185;BME280;38160;52.876;18.778;2023-04-07T16:24:37;100895.15;;;11.31;100.00
52185;BME280;38160;52.876;18.778;2023-04-07T16:27:11;100899.85;;;11.24;100.00
52185;BME280;38160;52.876;18.778;2023-04-07T16:29:44;100898.61;;;11.15;100.00
52185;BME280;38160;52.876;18.778;2023-04-07T16:32:36;100902.98;;;11.03;100.00
52185;BME280;38160;52.876;18.778;2023-04-07T16:48:43;100923.39;;;10.38;100.00
52185;BME280;38160;52.876;18.778;2023-04-07T16:52:01;100931.45;;;10.31;100.00
52185;BME280;38160;52.876;18.778;2023-04-07T16:54:40;100931.50;;;10.22;100.00
52185;BME280;38160;52.876;18.778;2023-04-07T17:06:22;100958.37;;;10.08;100.00
52185;BME280;38160;52.876;18.778;2023-04-07T17:20:32;100979.98;;;10.22;100.00
52185;BME280;38160;52.876;18.778;2023-04-07T17:26:32;100985.69;;;10.30;100.00
52185;BME280;38160;52.876;18.778;2023-04-07T17:32:23;100994.38;;;10.32;100.00
52185;BME280;38160;52.876;18.778;2023-04-07T17:54:16;101031.73;;;10.33;100.00
52185;BME280;38160;52.876;18.778;2023-04-07T17:56:51;101032.86;;;10.33;100.00
52185;BME280;38160;52.876;18.778;2023-04-07T17:59:26;101041.68;;;10.33;100.00
52185;BME280;38160;52.876;18.778;2023-04-07T18:02:08;101044.70;;;10.33;100.00
52185;BME280;38160;52.876;18.778;2023-04-07T18:04:44;101043.92;;;10.32;100.00
52185;BME280;38160;52.876;18.778;2023-04-07T18:07:20;101052.43;;;10.31;100.00
52185;BME280;38160;52.876;18.778;2023-04-07T18:10:04;101056.61;;;10.31;100.00
52185;BME280;38160;52.876;18.778;2023-04-07T18:13:00;101066.31;;;10.31;100.00
52185;BME280;38160;52.876;18.778;2023-04-07T18:15:58;101072.35;;;10.28;100.00
52185;BME280;38160;52.876;18.778;2023-04-07T18:19:11;101072.40;;;10.22;100.00
52185;BME280;38160;52.876;18.778;2023-04-07T18:21:44;101081.16;;;10.23;100.00